Data for 09/15/2005

Time Sea-Level Adjusted Pressure Absolute Pressure Temperature Relative Humidity Dew Point   
(mb) (inHg) (mb) (inHg) (C) (F) (%) (C) (F)
00:05 1019 30.09 848 25.04 9.7 49.5 48 -0.8 30.6
00:10 1019 30.09 848 25.04 9.4 48.9 49 -0.6 30.9
00:15 1019 30.09 848 25.04 9 48.3 50 -0.8 30.6
00:20 1019 30.09 848 25.04 8.7 47.7 52 -0.6 30.9
00:25 1019 30.09 848 25.04 8.3 46.9 54 -0.5 31.1
00:30 1019 30.09 848 25.04 8 46.4 55 -0.6 31
00:35 1019 30.09 848 25.04 8.1 46.7 53 -0.9 30.4
00:40 1019 30.09 848 25.04 8 46.4 52 -1.3 29.7
00:45 1019 30.09 848 25.04 8 46.5 54 -0.7 30.7
00:50 1019 30.09 848 25.04 7.9 46.2 52 -1.3 29.7
00:55 1019 30.09 848 25.04 7.8 46 55 -0.8 30.6
01:00 1019 30.09 848 25.04 7.6 45.7 54 -1.2 29.9
01:05 1019 30.09 848 25.04 7.5 45.6 55 -0.8 30.5
01:10 1019 30.09 848 25.04 7.6 45.8 53 -1.2 29.8
01:15 1019 30.09 848 25.04 8 46.4 52 -1.3 29.6
01:20 1019 30.09 848 25.04 8.3 46.9 52 -1.1 30
01:25 1019 30.09 848 25.04 8.4 47.1 50 -1.5 29.3
01:30 1019 30.09 848 25.04 8.7 47.6 49 -1.3 29.7
01:35 1019 30.09 848 25.04 8.5 47.3 51 -1 30.2
01:40 1019 30.09 848 25.04 8.2 46.8 51 -1.3 29.6
01:45 1019 30.09 848 25.04 8.3 47 50 -1.4 29.6
01:50 1019 30.09 848 25.04 8.6 47.6 49 -1.5 29.3
01:55 1019 30.09 848 25.04 9 48.1 48 -1.5 29.4
02:00 1019 30.09 848 25.04 9.3 48.7 47 -1.5 29.4
02:05 1019 30.09 848 25.04 9.6 49.3 46 -1.3 29.7
02:10 1019 30.09 848 25.04 9.7 49.4 46 -1.2 29.8
02:15 1019 30.09 848 25.04 9.5 49 47 -1.2 29.9
02:20 1019 30.09 848 25.04 9.3 48.8 48 -1 30.1
02:25 1019 30.09 848 25.04 9.2 48.6 48 -1.1 30
02:30 1019 30.09 848 25.04 9 48.3 48 -1.3 29.6
02:35 1019 30.09 848 25.04 9 48.2 48 -1.3 29.7
02:40 1019 30.09 848 25.04 8.9 47.9 49 -1.2 29.8
02:45 1019 30.09 848 25.04 8.9 48 49 -1.3 29.6
02:50 1019 30.09 848 25.04 8.8 47.9 49 -1.2 29.8
02:55 1019 30.09 849 25.07 8.9 48 49 -1.2 29.9
03:00 1019 30.09 849 25.07 8.9 47.9 48 -1.4 29.5
03:05 1019 30.09 848 25.04 8.6 47.6 50 -1.1 30
03:10 1019 30.09 848 25.04 8.7 47.6 48 -1.6 29.1
03:15 1019 30.09 848 25.04 8.7 47.6 49 -1.5 29.3
03:20 1019 30.09 848 25.04 8.6 47.6 50 -1.3 29.7
03:25 1019 30.09 848 25.04 8.6 47.5 50 -1.2 29.9
03:30 1019 30.09 848 25.04 8.1 46.5 53 -1 30.2
03:35 1019 30.09 848 25.04 8.1 46.5 52 -1.2 29.8
03:40 1019 30.09 848 25.04 8.3 46.9 51 -1.3 29.6
03:45 1019 30.09 848 25.04 8.7 47.7 50 -1.2 29.9
03:50 1019 30.09 848 25.04 8.9 47.9 50 -0.9 30.4
03:55 1019 30.09 848 25.04 8.7 47.7 51 -0.8 30.5
04:00 1019 30.09 848 25.04 8.7 47.7 51 -0.9 30.4
04:05 1019 30.09 848 25.04 8.7 47.7 51 -0.7 30.7
04:10 1019 30.09 848 25.04 8.7 47.7 52 -0.7 30.8
04:15 1019 30.09 848 25.04 8.8 47.8 52 -0.6 30.9
04:20 1019 30.09 848 25.04 8.6 47.5 53 -0.3 31.4
04:25 1019 30.09 848 25.04 8.1 46.7 55 -0.4 31.3
04:30 1019 30.09 848 25.04 7.9 46.2 56 -0.4 31.3
04:35 1019 30.09 848 25.04 8 46.3 56 -0.3 31.4
04:40 1019 30.09 848 25.04 8.1 46.5 55 -0.5 31.2
04:45 1019 30.09 848 25.04 8.2 46.8 54 -0.4 31.3
04:50 1019 30.09 848 25.04 8.3 46.9 54 -0.4 31.2
04:55 1019 30.09 848 25.04 8.4 47.2 53 -0.5 31.1
05:00 1019 30.09 848 25.04 8.6 47.5 53 -0.4 31.2
05:05 1019 30.09 848 25.04 8.7 47.7 52 -0.4 31.2
05:10 1019 30.09 848 25.04 8.8 47.8 53 -0.4 31.3
05:15 1019 30.09 848 25.04 8.8 47.9 52 -0.4 31.3
05:20 1019 30.09 848 25.04 8.9 48 52 -0.4 31.3
05:25 1019 30.09 848 25.04 8.9 48 52 -0.5 31.1
05:30 1019 30.09 848 25.04 9 48.2 52 -0.4 31.2
05:35 1019 30.09 848 25.04 9.1 48.3 51 -0.6 31
05:40 1019 30.09 848 25.04 9.1 48.4 50 -0.7 30.7
05:45 1019 30.09 848 25.04 9.2 48.5 50 -0.6 30.9
05:50 1019 30.09 848 25.04 9.4 48.8 49 -0.9 30.4
05:55 1019 30.09 848 25.04 9.4 48.9 49 -0.8 30.5
06:00 1019 30.09 848 25.04 9.3 48.7 49 -0.8 30.6
06:05 1019 30.09 848 25.04 9.3 48.7 49 -0.9 30.4
06:10 1019 30.09 848 25.04 9.2 48.5 49 -1 30.2
06:15 1019 30.09 848 25.04 9 48.1 51 -0.6 30.9
06:20 1019 30.09 848 25.04 8.9 47.9 48 -1.4 29.5
06:25 1019 30.09 848 25.04 9.3 48.7 48 -1.2 29.9
06:30 1019 30.09 848 25.04 9.3 48.7 49 -0.9 30.3
06:35 1019 30.09 848 25.04 9.2 48.6 46 -1.7 29
06:40 1019 30.09 848 25.04 9.7 49.5 45 -1.6 29.1
06:45 1019 30.09 848 25.04 9.7 49.5 45 -1.6 29.2
06:50 1019 30.09 848 25.04 9.4 48.9 46 -1.5 29.2
06:55 1019 30.09 848 25.04 8.9 48 48 -1.5 29.3
07:00 1019 30.09 848 25.04 8.5 47.2 51 -1.1 30
07:05 1019 30.09 848 25.04 8.3 46.9 52 -1 30.1
07:10 1019 30.09 848 25.04 7.7 45.8 54 -0.9 30.4
07:15 1019 30.09 848 25.04 8 46.5 50 -1.7 29
07:20 1019 30.09 848 25.04 8.4 47.2 50 -1.4 29.4
07:25 1019 30.09 848 25.04 8.7 47.6 48 -1.6 29.1
07:30 1019 30.09 848 25.04 9.1 48.3 45 -2.1 28.2
07:35 1019 30.09 848 25.04 9.4 48.9 45 -1.8 28.8
07:40 1019 30.09 848 25.04 9.5 49.1 45 -1.9 28.5
07:45 1019 30.09 848 25.04 9.6 49.4 44 -1.9 28.6
07:50 1019 30.09 848 25.04 9.7 49.5 45 -1.6 29.2
07:55 1019 30.09 848 25.04 9.6 49.3 46 -1.3 29.6
08:00 1019 30.09 848 25.04 9.4 48.9 48 -1.1 30
08:05 1019 30.09 848 25.04 9 48.1 49 -1.1 29.9
08:10 1019 30.09 848 25.04 9.1 48.4 48 -1.2 29.9
08:15 1019 30.09 848 25.04 9.2 48.5 48 -1.2 29.9
08:20 1019 30.09 849 25.07 9.6 49.3 45 -1.6 29.1
08:25 1019 30.09 849 25.07 9.9 49.7 47 -0.7 30.7
08:30 1020 30.12 849 25.07 10 50 47 -0.7 30.7
08:35 1019 30.09 849 25.07 10.1 50.2 46 -1.1 30.1
08:40 1020 30.12 849 25.07 10.3 50.5 47 -0.5 31.1
08:45 1020 30.12 849 25.07 10.8 51.4 44 -0.8 30.6
08:50 1020 30.12 849 25.07 11.4 52.6 44 -0.4 31.4
08:55 1020 30.12 849 25.07 11.6 53 42 -0.7 30.8
09:00 1020 30.12 849 25.07 11.7 53 45 0 32.1
09:05 1020 30.12 849 25.07 11.6 52.8 44 -0.2 31.6
09:10 1020 30.12 849 25.07 11.6 52.9 45 0.3 32.5
09:15 1020 30.12 849 25.07 11.7 53.1 43 -0.4 31.4
09:20 1020 30.12 849 25.07 12.1 53.8 40 -0.8 30.5
09:25 1020 30.12 849 25.07 12.2 53.9 43 -0.1 31.8
09:30 1020 30.12 849 25.07 12.2 53.9 44 0.5 32.9
09:35 1020 30.12 849 25.07 12.5 54.5 44 0.6 33
09:40 1020 30.12 849 25.07 12.5 54.5 42 -0 31.9
09:45 1020 30.12 849 25.07 12.5 54.5 43 0.4 32.8
09:50 1020 30.12 849 25.07 12.5 54.5 43 0.2 32.4
09:55 1020 30.12 849 25.07 13.1 55.5 40 -0.1 31.9
10:00 1020 30.12 849 25.07 13.2 55.8 40 -0 32
10:05 1020 30.12 849 25.07 13.5 56.4 38 -0.4 31.3
10:10 1020 30.12 849 25.07 13.9 57.1 37 -0.3 31.5
10:15 1020 30.12 849 25.07 14.5 58 35 -0.5 31
10:20 1020 30.12 849 25.07 14.8 58.6 35 -0.4 31.2
10:25 1020 30.12 849 25.07 15.4 59.8 33 -0.8 30.6
10:30 1020 30.12 849 25.07 15.9 60.7 32 -0.6 30.9
10:35 1020 30.12 849 25.07 16.5 61.8 32 -0.2 31.6
10:40 1020 30.12 849 25.07 16.7 62 32 0.1 32.2
10:45 1020 30.12 849 25.07 16.3 61.3 31 -0.5 31
10:50 1019 30.09 849 25.07 16.6 61.9 29 -1.2 29.8
10:55 1019 30.09 849 25.07 16.9 62.3 30 -0.9 30.3
11:00 1019 30.09 849 25.07 16.6 62 31 -0.3 31.4
11:05 1019 30.09 849 25.07 16.9 62.4 31 -0.1 31.8
11:10 1019 30.09 849 25.07 17.6 63.6 30 0 32.1
11:15 1019 30.09 849 25.07 17.3 63.1 31 0 32
11:20 1019 30.09 849 25.07 18 64.3 29 -0.4 31.3
11:25 1019 30.09 848 25.04 18.5 65.3 27 -0.5 31.1
11:30 1019 30.09 849 25.07 18.5 65.4 27 -0.7 30.7
11:35 1019 30.09 849 25.07 18 64.4 27 -0.9 30.3
11:40 1019 30.09 848 25.04 18 64.4 29 -0.3 31.5
11:45 1019 30.09 848 25.04 18.3 65 27 -0.8 30.5
11:50 1019 30.09 848 25.04 19.6 67.2 25 -0.8 30.5
11:55 1019 30.09 848 25.04 19.9 67.8 25 -0.3 31.4
12:00 1019 30.09 848 25.04 19.3 66.8 26 -0.5 31.2
12:05 1019 30.09 848 25.04 19.9 67.8 26 -0.2 31.6
12:10 1019 30.09 848 25.04 20.3 68.5 25 0 32
12:15 1019 30.09 848 25.04 19.9 67.9 24 -0.8 30.5
12:20 1019 30.09 848 25.04 20.5 68.9 25 -0.3 31.5
12:25 1019 30.09 848 25.04 20.8 69.4 24 -0.3 31.4
12:30 1019 30.09 848 25.04 20.7 69.3 25 0.3 32.6
12:35 1019 30.09 848 25.04 21 69.8 25 0.1 32.3
12:40 1018 30.06 848 25.04 21.4 70.6 23 -0.3 31.5
12:45 1018 30.06 848 25.04 21.2 70.2 24 0.1 32.2
12:50 1018 30.06 847 25.01 21.1 69.9 23 -0.6 31
12:55 1018 30.06 847 25.01 21 69.8 23 -0.7 30.8
13:00 1018 30.06 847 25.01 21.7 71 21 -1.2 29.8
13:05 1018 30.06 847 25.01 22 71.6 22 -0.6 31
13:10 1018 30.06 847 25.01 22.4 72.3 21 -0.8 30.5
13:15 1018 30.06 847 25.01 21.9 71.4 23 -0.1 31.9
13:20 1018 30.06 847 25.01 22 71.6 22 -0.6 31
13:25 1018 30.06 847 25.01 21.7 71 22 -0.7 30.8
13:30 1018 30.06 847 25.01 21.7 71.1 21 -1.1 30
13:35 1018 30.06 847 25.01 21.7 71.1 22 -0.6 30.9
13:40 1018 30.06 847 25.01 21.3 70.4 23 -0.7 30.8
13:45 1018 30.06 847 25.01 21.6 70.8 22 -0.8 30.6
13:50 1018 30.06 847 25.01 21.7 71.1 22 -1 30.1
13:55 1017 30.03 847 25.01 22.5 72.6 20 -1.3 29.6
14:00 1017 30.03 847 25.01 22.6 72.6 20 -1.2 29.8
14:05 1017 30.03 847 25.01 22.6 72.8 20 -1 30.2
14:10 1017 30.03 847 25.01 21.6 70.8 22 -0.9 30.4
14:15 1017 30.03 846 24.98 22 71.5 22 -0.8 30.6
14:20 1017 30.03 846 24.98 22.5 72.5 22 -0.4 31.3
14:25 1017 30.03 846 24.98 22.2 71.9 21 -0.7 30.8
14:30 1017 30.03 846 24.98 22.3 72.2 21 -0.8 30.6
14:35 1017 30.03 846 24.98 23 73.3 20 -0.7 30.7
14:40 1017 30.03 846 24.98 23 73.3 21 -0.6 31
14:45 1017 30.03 846 24.98 23.1 73.5 21 -0.4 31.3
14:50 1017 30.03 846 24.98 22.7 72.9 21 -0.2 31.6
14:55 1017 30.03 846 24.98 21.7 71.1 22 -0.6 31
15:00 1017 30.03 846 24.98 21.5 70.7 20 -2.2 28
15:05 1017 30.03 846 24.98 21.6 70.8 21 -1.5 29.3
15:10 1017 30.03 846 24.98 21.6 70.8 21 -1.6 29.1
15:15 1017 30.03 846 24.98 21.3 70.4 21 -1.8 28.7
15:20 1017 30.03 846 24.98 21.4 70.5 20 -2 28.4
15:25 1017 30.03 846 24.98 22.3 72.1 19 -2.5 27.4
15:30 1017 30.03 846 24.98 22.7 72.8 19 -2.1 28.3
15:35 1017 30.03 846 24.98 22.8 73 18 -2.8 27
15:40 1016 30 846 24.98 23 73.5 19 -2 28.5
15:45 1016 30 846 24.98 23 73.4 19 -1.4 29.5
15:50 1016 30 846 24.98 22.3 72.2 20 -1.8 28.8
15:55 1016 30 846 24.98 22.8 73 19 -1.6 29.2
16:00 1016 30 846 24.98 23.1 73.5 18 -2.3 27.8
16:05 1016 30 845 24.95 22.9 73.3 18 -2.4 27.6
16:10 1016 30 845 24.95 22.9 73.1 18 -2.4 27.7
16:15 1016 30 845 24.95 22.9 73.2 18 -2.1 28.2
16:20 1016 30 845 24.95 22.7 72.8 19 -1.8 28.8
16:25 1016 30 845 24.95 23.1 73.6 19 -1.2 29.8
16:30 1016 30 845 24.95 22.9 73.3 19 -1.7 28.9
16:35 1016 30 845 24.95 22.6 72.6 18 -2.6 27.3
16:40 1016 30 845 24.95 22.5 72.4 20 -1.3 29.6
16:45 1016 30 845 24.95 22.1 71.8 20 -1.6 29.1
16:50 1016 30 845 24.95 23 73.3 18 -2.1 28.3
16:55 1016 30 845 24.95 23.3 74 19 -1.5 29.3
17:00 1016 30 845 24.95 22.4 72.4 19 -1.9 28.6
17:05 1016 30 845 24.95 22.3 72.1 20 -1.7 28.9
17:10 1016 30 845 24.95 22.4 72.2 19 -2.2 28
17:15 1016 30 845 24.95 21.9 71.5 20 -1.9 28.5
17:20 1016 30 845 24.95 22.1 71.8 20 -1.5 29.3
17:25 1016 30 845 24.95 22.2 71.9 20 -1.9 28.6
17:30 1016 30 845 24.95 21.9 71.5 21 -1 30.2
17:35 1016 30 845 24.95 21.9 71.3 21 -1.1 30.1
17:40 1016 30 845 24.95 21.8 71.3 21 -1.2 29.9
17:45 1016 30 845 24.95 21.9 71.4 22 -0.7 30.8
17:50 1016 30 845 24.95 21.8 71.3 23 -0.3 31.5
17:55 1016 30 845 24.95 22.1 71.8 22 -0.2 31.6
18:00 1016 30 845 24.95 22.4 72.3 23 0.3 32.6
18:05 1016 30 845 24.95 22.5 72.5 21 -0.4 31.3
18:10 1016 30 845 24.95 22.3 72.2 22 -0.2 31.7
18:15 1016 30 845 24.95 22.1 71.8 23 0.2 32.3
18:20 1016 30 845 24.95 21.8 71.2 23 0.1 32.1
18:25 1016 30 845 24.95 21.1 70 24 0 32
18:30 1016 30 845 24.95 20.6 69.1 25 -0 31.9
18:35 1016 30 845 24.95 20.4 68.8 25 0.2 32.3
18:40 1016 30 845 24.95 20.2 68.3 25 -0.1 31.8
18:45 1016 30 845 24.95 20.1 68.2 26 0 32
18:50 1016 30 845 24.95 20.2 68.3 25 -0.1 31.8
18:55 1016 30 845 24.95 20.3 68.5 25 -0.5 31.1
19:00 1016 30 845 24.95 20.1 68.3 25 -0.3 31.5
19:05 1016 30 845 24.95 19.9 67.9 25 -0.5 31
19:10 1016 30 845 24.95 19.9 67.7 26 -0.1 31.8
19:15 1016 30 845 24.95 19.3 66.8 27 0.2 32.3
19:20 1016 30 845 24.95 18.9 66 28 -0.1 31.8
19:25 1016 30 845 24.95 18.7 65.7 27 -0.3 31.4
19:30 1016 30 845 24.95 19 66.1 26 -0.7 30.8
19:35 1016 30 845 24.95 19.1 66.4 26 -0.9 30.4
19:40 1016 30 845 24.95 18.9 66 26 -0.8 30.6
19:45 1016 30 845 24.95 18.7 65.7 26 -1.2 29.9
19:50 1016 30 845 24.95 18.8 65.9 26 -0.9 30.4
19:55 1016 30 845 24.95 18.6 65.5 27 -0.7 30.8
20:00 1016 30 845 24.95 18.2 64.8 30 0.6 33
20:05 1016 30 845 24.95 17.9 64.2 29 -0.2 31.7
20:10 1016 30 845 24.95 17.7 63.8 30 0.2 32.3
20:15 1016 30 845 24.95 17.6 63.6 29 -0.7 30.8
20:20 1016 30 845 24.95 17.3 63.1 29 -1 30.2
20:25 1016 30 845 24.95 17.2 62.9 33 0.8 33.4
20:30 1016 30 845 24.95 17 62.6 30 -0.5 31
20:35 1016 30 845 24.95 16.9 62.4 29 -1.1 29.9
20:40 1016 30 845 24.95 17 62.5 27 -2 28.4
20:45 1016 30 845 24.95 17.4 63.3 26 -2 28.4
20:50 1016 30 845 24.95 17.4 63.4 27 -1.7 29
20:55 1016 30 845 24.95 17.5 63.5 26 -1.9 28.5
21:00 1016 30 845 24.95 17.9 64.2 27 -1.4 29.4
21:05 1016 30 845 24.95 17.6 63.7 27 -1.3 29.7
21:10 1016 30 845 24.95 17.5 63.4 32 0.6 33.2
21:15 1016 30 845 24.95 17.3 63.1 27 -1.6 29.1
21:20 1016 30 845 24.95 17.7 63.8 27 -1.2 29.8
21:25 1016 30 845 24.95 17.5 63.5 30 0.1 32.2
21:30 1016 30 845 24.95 17.1 62.8 29 -1.2 29.9
21:35 1016 30 845 24.95 16.9 62.5 27 -1.8 28.7
21:40 1016 30 845 24.95 17.8 64 24 -2.7 27.1
21:45 1016 30 845 24.95 18.5 65.2 24 -2.3 27.8
21:50 1016 30 845 24.95 18.1 64.6 25 -2.1 28.1
21:55 1016 30 845 24.95 18.3 64.9 24 -2.3 27.8
22:00 1016 30 845 24.95 18.3 64.9 26 -1.7 29
22:05 1016 30 845 24.95 17.8 64.1 27 -1.3 29.7
22:10 1016 30 845 24.95 17.7 63.9 25 -2.2 28
22:15 1016 30 845 24.95 17.7 63.9 26 -1.8 28.8
22:20 1016 30 845 24.95 17.9 64.2 24 -2.5 27.4
22:25 1016 30 845 24.95 18.1 64.6 26 -1.7 28.9
22:30 1016 30 845 24.95 17.7 63.8 26 -1.8 28.8
22:35 1016 30 845 24.95 17.6 63.6 31 0.2 32.3
22:40 1016 30 845 24.95 17.5 63.6 26 -1.9 28.5
22:45 1016 30 845 24.95 17.3 63.2 27 -1.9 28.6
22:50 1016 30 845 24.95 17.2 62.9 28 -1.5 29.4
22:55 1016 30 845 24.95 16.7 62.1 28 -1.7 28.9
23:00 1016 30 845 24.95 16.3 61.3 29 -1.9 28.6
23:05 1016 30 845 24.95 16.3 61.4 28 -2.1 28.2
23:10 1016 30 845 24.95 16.5 61.7 28 -2.2 28.1
23:15 1016 30 845 24.95 16.5 61.6 28 -1.9 28.6
23:20 1016 30 845 24.95 16.4 61.6 28 -1.9 28.6
23:25 1016 30 845 24.95 16.3 61.4 29 -1.8 28.7
23:30 1016 30 845 24.95 16.2 61.2 29 -1.8 28.7
23:35 1016 30 845 24.95 16.7 62.1 28 -2 28.4
23:40 1016 30 845 24.95 16.8 62.3 26 -2.6 27.3
23:45 1016 30 845 24.95 17.4 63.3 25 -2.5 27.6
23:50 1016 30 845 24.95 17.7 63.8 27 -1.7 29
23:55 1016 30 845 24.95 17.2 62.9 28 -1.6 29.2
24:00 1016 30 845 24.95 16.4 61.5 29 -1.8 28.8